Аэропорт: Элиста. Элиста

ICAO: URWI

METAR:
2021-07-28 13:30:00
URWI 281330Z 36004MPS 320V060 CAVOK 32/02 Q1014 R09/010065 NOSIG
METAR:
2021-07-28 11:00:00
TAF URWI 281100Z 2812/2821 05003G10MPS 9999 SCT030CB TEMPO 2815/2821 17006G13MPS